createdAt,value
2023-05-25T00:02:15.468Z,8.45
2023-05-25T00:04:48.385Z,7.72
2023-05-25T00:07:19.846Z,8.68
2023-05-25T00:09:48.870Z,8.18
2023-05-25T00:12:17.831Z,7.60
2023-05-25T00:14:47.525Z,7.30
2023-05-25T00:17:16.434Z,7.10
2023-05-25T00:19:44.152Z,7.47
2023-05-25T00:22:13.856Z,7.78
2023-05-25T00:24:40.843Z,7.30
2023-05-25T00:27:09.787Z,7.88
2023-05-25T00:29:36.707Z,8.43
2023-05-25T00:32:06.169Z,7.00
2023-05-25T00:34:32.838Z,6.95
2023-05-25T00:36:59.615Z,6.95
2023-05-25T00:39:26.408Z,7.70
2023-05-25T00:41:55.996Z,6.82
2023-05-25T00:44:24.907Z,7.28
2023-05-25T00:46:52.446Z,6.72
2023-05-25T00:49:24.486Z,6.57
2023-05-25T00:51:52.578Z,6.60
2023-05-25T00:54:19.602Z,8.25
2023-05-25T00:57:07.456Z,7.30
2023-05-25T00:59:37.078Z,8.00
2023-05-25T01:02:06.952Z,6.63
2023-05-25T01:04:35.020Z,6.80
2023-05-25T01:07:04.496Z,7.20
2023-05-25T01:09:31.389Z,7.75
2023-05-25T01:12:00.269Z,6.85
2023-05-25T01:14:29.288Z,6.57
2023-05-25T01:17:00.716Z,7.00
2023-05-25T01:19:27.407Z,6.93
2023-05-25T01:22:18.310Z,6.57
2023-05-25T01:24:49.687Z,6.68
2023-05-25T01:27:32.701Z,6.60
2023-05-25T01:29:59.871Z,6.28
2023-05-25T01:32:28.836Z,6.60
2023-05-25T01:35:01.269Z,7.80
2023-05-25T01:37:31.527Z,7.28
2023-05-25T01:40:00.630Z,6.75
2023-05-25T01:42:29.977Z,7.18
2023-05-25T01:44:58.843Z,6.60
2023-05-25T01:47:37.607Z,6.65
2023-05-25T01:50:27.160Z,7.28
2023-05-25T01:52:59.322Z,6.50
2023-05-25T01:55:29.225Z,7.03
2023-05-25T01:57:58.090Z,6.32
2023-05-25T02:00:32.257Z,6.65
2023-05-25T02:03:02.203Z,6.45
2023-05-25T02:05:31.661Z,6.97
2023-05-25T02:07:58.418Z,6.65
2023-05-25T02:10:27.424Z,6.32
2023-05-25T02:12:56.486Z,6.35
2023-05-25T02:15:23.490Z,6.65
2023-05-25T02:17:50.765Z,6.60
2023-05-25T02:20:19.701Z,6.72
2023-05-25T02:22:46.396Z,6.50
2023-05-25T02:25:13.378Z,6.38
2023-05-25T02:27:40.084Z,6.63
2023-05-25T02:30:07.837Z,6.53
2023-05-25T02:32:35.378Z,7.05
2023-05-25T02:35:04.242Z,6.78
2023-05-25T02:37:30.952Z,6.93
2023-05-25T02:39:57.748Z,7.03
2023-05-25T02:42:24.816Z,6.78
2023-05-25T02:44:53.772Z,6.45
2023-05-25T02:47:22.987Z,6.97
2023-05-25T02:49:52.357Z,6.50
2023-05-25T02:52:19.135Z,6.80
2023-05-25T02:54:45.956Z,6.35
2023-05-25T02:57:14.820Z,6.60
2023-05-25T02:59:41.514Z,6.80
2023-05-25T03:02:10.373Z,9.15
2023-05-25T03:04:38.985Z,6.85
2023-05-25T03:07:05.803Z,6.78
2023-05-25T03:09:32.545Z,6.47
2023-05-25T03:12:03.953Z,7.22
2023-05-25T03:14:30.652Z,7.65
2023-05-25T03:16:57.845Z,6.97
2023-05-25T03:19:24.648Z,7.07
2023-05-25T03:21:51.325Z,5.97
2023-05-25T03:24:20.142Z,6.97
2023-05-25T03:26:51.565Z,6.63
2023-05-25T03:29:18.197Z,6.90
2023-05-25T03:31:47.060Z,6.78
2023-05-25T03:34:13.748Z,6.97
2023-05-25T03:36:46.017Z,7.07
2023-05-25T03:39:15.653Z,6.47
2023-05-25T03:41:46.714Z,6.90
2023-05-25T03:44:18.099Z,6.63
2023-05-25T03:46:44.837Z,7.28
2023-05-25T03:49:14.038Z,6.38
2023-05-25T03:51:41.512Z,7.03
2023-05-25T03:54:08.270Z,7.35
2023-05-25T03:56:37.229Z,6.60
2023-05-25T03:59:08.664Z,7.38
2023-05-25T04:01:40.051Z,6.68
2023-05-25T04:04:08.915Z,6.60
2023-05-25T04:06:38.602Z,6.78
2023-05-25T04:09:07.460Z,7.18
2023-05-25T04:11:36.432Z,6.93
2023-05-25T04:14:05.279Z,6.40
2023-05-25T04:16:31.943Z,6.63
2023-05-25T04:19:03.316Z,6.70
2023-05-25T04:21:32.433Z,8.57
2023-05-25T04:23:59.224Z,6.10
2023-05-25T04:26:28.093Z,7.40
2023-05-25T04:29:00.371Z,6.70
2023-05-25T04:31:27.248Z,7.43
2023-05-25T04:33:56.191Z,7.03
2023-05-25T04:36:25.115Z,6.63
2023-05-25T04:38:54.848Z,9.38
2023-05-25T04:41:21.682Z,8.95
2023-05-25T04:44:05.807Z,8.07
2023-05-25T04:46:39.232Z,8.30
2023-05-25T04:49:09.900Z,6.97
2023-05-25T04:51:38.720Z,8.82
2023-05-25T04:54:06.077Z,12.27
2023-05-25T04:56:34.943Z,12.63
2023-05-25T04:59:04.030Z,15.23
2023-05-25T05:01:31.213Z,14.93
2023-05-25T05:04:00.168Z,17.90
2023-05-25T05:06:29.113Z,16.80
2023-05-25T05:08:57.945Z,15.10
2023-05-25T05:11:24.665Z,19.58
2023-05-25T05:13:51.413Z,16.15
2023-05-25T05:16:22.895Z,14.70
2023-05-25T05:18:51.949Z,15.05
2023-05-25T05:21:19.637Z,14.82
2023-05-25T05:23:52.269Z,14.50
2023-05-25T05:26:19.300Z,18.63
2023-05-25T05:28:48.278Z,14.40
2023-05-25T05:31:17.413Z,14.88
2023-05-25T05:33:44.296Z,17.35
2023-05-25T05:36:11.254Z,16.65
2023-05-25T05:38:40.410Z,16.52
2023-05-25T05:41:14.205Z,15.43
2023-05-25T05:43:44.204Z,14.73
2023-05-25T05:46:13.229Z,15.00
2023-05-25T05:48:42.492Z,16.20
2023-05-25T05:51:14.357Z,18.60
2023-05-25T05:53:41.047Z,17.50
2023-05-25T05:56:17.359Z,18.27
2023-05-25T05:58:47.575Z,18.65
2023-05-25T06:01:19.681Z,22.02
2023-05-25T06:03:48.762Z,18.23
2023-05-25T06:06:15.733Z,20.02
2023-05-25T06:08:47.564Z,17.75
2023-05-25T06:11:16.533Z,20.88
2023-05-25T06:13:46.675Z,19.10
2023-05-25T06:16:15.670Z,19.30
2023-05-25T06:18:42.444Z,16.35
2023-05-25T06:21:12.865Z,16.73
2023-05-25T06:23:39.995Z,17.30
2023-05-25T06:26:06.854Z,16.83
2023-05-25T06:28:33.589Z,27.30
2023-05-25T06:31:03.629Z,16.60
2023-05-25T06:33:33.212Z,14.20
2023-05-25T06:36:02.087Z,15.68
2023-05-25T06:38:29.229Z,13.52
2023-05-25T06:41:02.746Z,15.55
2023-05-25T06:43:32.339Z,14.73
2023-05-25T06:46:02.030Z,12.50
2023-05-25T06:48:28.834Z,11.57
2023-05-25T06:50:55.548Z,12.35
2023-05-25T06:53:24.414Z,11.95
2023-05-25T06:55:51.158Z,11.98
2023-05-25T06:58:17.941Z,10.50
2023-05-25T07:00:47.123Z,14.43
2023-05-25T07:03:14.057Z,11.32
2023-05-25T07:05:40.904Z,11.10
2023-05-25T07:08:07.664Z,12.05
2023-05-25T07:10:36.749Z,10.85
2023-05-25T07:13:03.491Z,12.38
2023-05-25T07:15:30.415Z,11.85
2023-05-25T07:17:57.457Z,10.90
2023-05-25T07:20:24.555Z,12.48
2023-05-25T07:22:53.622Z,11.02
2023-05-25T07:25:22.586Z,10.80
2023-05-25T07:27:50.481Z,10.80
2023-05-25T07:30:19.891Z,11.23
2023-05-25T07:32:46.680Z,11.00
2023-05-25T07:35:13.503Z,11.23
2023-05-25T07:37:41.133Z,11.07
2023-05-25T07:40:09.049Z,9.15
2023-05-25T07:42:36.436Z,10.05
2023-05-25T07:45:06.689Z,10.13
2023-05-25T07:47:35.736Z,7.65
2023-05-25T07:50:07.796Z,10.20
2023-05-25T07:52:34.466Z,9.93
2023-05-25T07:55:01.256Z,9.70
2023-05-25T07:57:29.779Z,9.13
2023-05-25T07:59:59.123Z,10.45
2023-05-25T08:02:32.147Z,12.20
2023-05-25T08:05:00.013Z,9.70
2023-05-25T08:07:26.757Z,11.23
2023-05-25T08:09:56.034Z,10.48
2023-05-25T08:14:59.411Z,9.38
2023-05-25T08:17:28.383Z,9.50
2023-05-25T08:19:57.582Z,9.93
2023-05-25T08:22:24.324Z,10.07
2023-05-25T08:24:53.449Z,10.30
2023-05-25T08:27:20.177Z,10.40
2023-05-25T08:29:49.001Z,10.77
2023-05-25T08:32:15.959Z,11.68
2023-05-25T08:34:44.787Z,10.77
2023-05-25T08:37:14.533Z,12.98
2023-05-25T08:39:41.683Z,13.60
2023-05-25T08:42:10.546Z,11.57
2023-05-25T08:44:40.399Z,10.15
2023-05-25T08:47:08.163Z,13.00
2023-05-25T08:49:41.334Z,10.15
2023-05-25T08:52:16.935Z,10.13
2023-05-25T08:54:44.289Z,9.55
2023-05-25T08:57:20.239Z,9.98
2023-05-25T08:59:52.466Z,9.52
2023-05-25T09:03:00.610Z,8.73
2023-05-25T09:05:29.996Z,9.70
2023-05-25T09:07:58.969Z,8.20
2023-05-25T09:10:27.850Z,8.48
2023-05-25T09:12:56.705Z,9.57
2023-05-25T09:15:28.153Z,9.80
2023-05-25T09:17:57.269Z,9.65
2023-05-25T09:20:31.594Z,8.15
2023-05-25T09:23:02.830Z,7.97
2023-05-25T09:27:58.786Z,8.73
2023-05-25T09:30:32.908Z,7.10
2023-05-25T09:33:17.627Z,7.53
2023-05-25T09:35:45.458Z,14.63
2023-05-25T09:38:16.369Z,7.95
2023-05-25T09:43:15.649Z,11.82
2023-05-25T09:45:46.639Z,10.05
2023-05-25T09:48:15.681Z,8.88
2023-05-25T09:50:45.459Z,8.75
2023-05-25T09:53:16.425Z,11.65
2023-05-25T09:55:53.189Z,9.50
2023-05-25T09:58:23.811Z,10.77
2023-05-25T10:00:55.568Z,7.97
2023-05-25T10:03:22.745Z,10.25
2023-05-25T10:05:52.176Z,8.80
2023-05-25T10:08:20.266Z,8.02
2023-05-25T10:10:50.296Z,8.07
2023-05-25T10:13:23.398Z,8.82
2023-05-25T10:15:53.089Z,7.93
2023-05-25T10:18:26.214Z,7.20
2023-05-25T10:21:06.575Z,7.60
2023-05-25T10:23:38.694Z,8.47
2023-05-25T10:26:08.770Z,8.23
2023-05-25T10:28:36.710Z,9.55
2023-05-25T10:31:03.746Z,7.38
2023-05-25T10:33:33.553Z,7.18
2023-05-25T10:36:09.345Z,7.30
2023-05-25T10:38:40.992Z,7.60
2023-05-25T10:41:11.630Z,7.77
2023-05-25T10:43:38.726Z,7.65
2023-05-25T10:46:08.625Z,9.52
2023-05-25T10:48:38.942Z,9.38
2023-05-25T10:51:08.213Z,7.97
2023-05-25T10:53:35.995Z,5.82
2023-05-25T10:56:08.873Z,7.95
2023-05-25T10:58:37.723Z,7.53
2023-05-25T11:01:11.001Z,9.02
2023-05-25T11:03:51.662Z,9.73
2023-05-25T11:06:21.108Z,9.13
2023-05-25T11:08:51.528Z,8.90
2023-05-25T11:11:21.092Z,8.30
2023-05-25T11:13:50.512Z,8.70
2023-05-25T11:16:25.177Z,11.23
2023-05-25T11:18:57.816Z,7.90
2023-05-25T11:21:27.575Z,8.65
2023-05-25T11:24:04.514Z,8.55
2023-05-25T11:26:37.506Z,7.13
2023-05-25T11:29:14.917Z,8.40
2023-05-25T11:31:43.707Z,6.32
2023-05-25T11:34:12.099Z,7.20
2023-05-25T11:36:39.395Z,7.07
2023-05-25T11:39:11.696Z,7.22
2023-05-25T11:44:28.103Z,6.30
2023-05-25T11:46:58.199Z,8.13
2023-05-25T11:49:27.814Z,7.22
2023-05-25T11:51:56.377Z,9.70
2023-05-25T11:54:27.883Z,7.43
2023-05-25T11:56:57.464Z,8.48
2023-05-25T11:59:28.227Z,6.75
2023-05-25T12:02:03.213Z,8.32
2023-05-25T12:04:31.188Z,7.43
2023-05-25T12:07:07.043Z,7.53
2023-05-25T12:09:36.678Z,6.90
2023-05-25T12:12:06.685Z,7.25
2023-05-25T12:14:41.506Z,8.52
2023-05-25T12:17:10.556Z,7.57
2023-05-25T12:19:37.401Z,7.30
2023-05-25T12:22:04.406Z,7.50
2023-05-25T12:24:31.230Z,8.80
2023-05-25T12:26:58.814Z,8.40
2023-05-25T12:29:26.430Z,8.35
2023-05-25T12:31:53.165Z,6.80
2023-05-25T12:34:24.234Z,6.47
2023-05-25T12:36:54.918Z,7.93
2023-05-25T12:39:31.041Z,5.95
2023-05-25T12:41:59.514Z,6.38
2023-05-25T12:44:35.951Z,7.82
2023-05-25T12:47:24.298Z,6.05
2023-05-25T12:49:54.835Z,7.22
2023-05-25T12:52:37.410Z,6.20
2023-05-25T12:55:27.390Z,6.18
2023-05-25T12:58:09.046Z,6.75
2023-05-25T13:00:39.509Z,7.82
2023-05-25T13:03:09.178Z,7.13
2023-05-25T13:05:37.156Z,7.70
2023-05-25T13:08:04.460Z,5.82
2023-05-25T13:10:32.944Z,6.57
2023-05-25T13:13:03.876Z,6.00
2023-05-25T13:15:32.781Z,6.72
2023-05-25T13:17:59.632Z,5.55
2023-05-25T13:20:27.182Z,6.20
2023-05-25T13:22:56.184Z,7.35
2023-05-25T13:25:25.366Z,6.90
2023-05-25T13:27:52.802Z,7.07
2023-05-25T13:30:21.969Z,6.00
2023-05-25T13:32:51.851Z,5.40
2023-05-25T13:35:41.473Z,6.35
2023-05-25T13:38:10.446Z,6.65
2023-05-25T13:40:37.587Z,5.50
2023-05-25T13:43:07.073Z,5.80
2023-05-25T13:45:36.044Z,6.10
2023-05-25T13:48:07.592Z,5.28
2023-05-25T13:50:34.469Z,6.80
2023-05-25T13:53:01.168Z,5.88
2023-05-25T13:55:28.028Z,6.03
2023-05-25T13:57:54.840Z,6.13
2023-05-25T14:00:23.948Z,5.05
2023-05-25T14:02:50.908Z,5.43
2023-05-25T14:05:19.818Z,5.68
2023-05-25T14:07:49.691Z,5.07
2023-05-25T14:10:16.694Z,5.72
2023-05-25T14:12:46.114Z,5.28
2023-05-25T14:15:14.861Z,5.57
2023-05-25T14:17:41.695Z,5.60
2023-05-25T14:20:09.668Z,5.65
2023-05-25T14:22:41.232Z,5.85
2023-05-25T14:25:08.552Z,6.60
2023-05-25T14:27:37.452Z,6.18
2023-05-25T14:30:04.477Z,6.10
2023-05-25T14:32:31.183Z,6.45
2023-05-25T14:35:00.061Z,5.70
2023-05-25T14:37:29.102Z,5.72
2023-05-25T14:39:56.303Z,5.88
2023-05-25T14:42:23.484Z,6.20
2023-05-25T14:44:52.294Z,6.20
2023-05-25T14:47:19.109Z,7.50
2023-05-25T14:49:45.848Z,10.50
2023-05-25T14:52:12.568Z,11.10
2023-05-25T14:54:44.899Z,11.07
2023-05-25T14:57:12.394Z,13.65
2023-05-25T14:59:39.326Z,12.73
2023-05-25T15:02:06.217Z,10.77
2023-05-25T15:04:33.106Z,8.35
2023-05-25T15:07:00.034Z,12.73
2023-05-25T15:09:26.855Z,15.13
2023-05-25T15:11:56.292Z,13.02
2023-05-25T15:14:43.962Z,16.45
2023-05-25T15:17:12.912Z,16.70
2023-05-25T15:19:41.803Z,12.73
2023-05-25T15:22:08.497Z,16.25
2023-05-25T15:24:35.298Z,12.52
2023-05-25T15:27:07.262Z,8.57
2023-05-25T15:29:34.066Z,10.65
2023-05-25T15:32:03.511Z,10.35
2023-05-25T15:34:30.449Z,9.48
2023-05-25T15:37:00.421Z,10.05
2023-05-25T15:39:27.252Z,9.27
2023-05-25T15:41:54.528Z,12.23
2023-05-25T15:44:21.826Z,9.52
2023-05-25T15:46:50.752Z,9.25
2023-05-25T15:49:19.688Z,12.10
2023-05-25T15:51:46.415Z,11.10
2023-05-25T15:54:15.605Z,9.65
2023-05-25T15:56:42.499Z,10.43
2023-05-25T15:59:12.525Z,7.35
2023-05-25T16:01:41.778Z,9.95
2023-05-25T16:04:08.722Z,7.93
2023-05-25T16:06:36.333Z,10.30
2023-05-25T16:09:04.158Z,10.82
2023-05-25T16:11:33.267Z,11.98
2023-05-25T16:14:02.224Z,10.77
2023-05-25T16:16:29.722Z,7.63
2023-05-25T16:18:56.500Z,8.23
2023-05-25T16:21:27.972Z,7.18
2023-05-25T16:24:01.072Z,6.90
2023-05-25T16:26:29.975Z,7.82
2023-05-25T16:29:02.267Z,7.55
2023-05-25T16:31:28.933Z,7.85
2023-05-25T16:33:55.721Z,6.88
2023-05-25T16:36:26.699Z,6.63
2023-05-25T16:41:22.914Z,6.47
2023-05-25T16:43:49.641Z,6.85
2023-05-25T16:46:18.699Z,7.28
2023-05-25T16:48:45.524Z,7.45
2023-05-25T16:51:16.823Z,7.13
2023-05-25T16:53:45.762Z,9.52
2023-05-25T16:56:12.533Z,8.57
2023-05-25T16:58:42.440Z,8.57
2023-05-25T17:01:09.260Z,7.97
2023-05-25T17:03:38.257Z,7.50
2023-05-25T17:06:05.268Z,7.93
2023-05-25T17:08:36.995Z,7.38
2023-05-25T17:11:05.977Z,8.68
2023-05-25T17:13:35.836Z,9.15
2023-05-25T17:16:05.352Z,9.65
2023-05-25T17:18:34.244Z,7.95
2023-05-25T17:21:05.734Z,7.88
2023-05-25T17:23:34.696Z,10.68
2023-05-25T17:26:06.039Z,7.93
2023-05-25T17:28:33.055Z,8.73
2023-05-25T17:31:02.654Z,8.23
2023-05-25T17:33:31.627Z,10.18
2023-05-25T17:36:00.573Z,10.77
2023-05-25T17:38:27.752Z,8.93
2023-05-25T17:40:56.620Z,9.75
2023-05-25T17:43:25.869Z,10.43
2023-05-25T17:45:52.853Z,9.48
2023-05-25T17:48:19.627Z,8.10
2023-05-25T17:50:48.470Z,7.90
2023-05-25T17:53:17.296Z,7.40
2023-05-25T17:55:44.149Z,10.30
2023-05-25T17:58:13.158Z,8.50
2023-05-25T18:00:42.036Z,8.77
2023-05-25T18:03:11.017Z,8.10
2023-05-25T18:05:38.681Z,9.15
2023-05-25T18:08:07.896Z,7.40
2023-05-25T18:10:36.673Z,7.93
2023-05-25T18:13:03.373Z,8.02
2023-05-25T18:15:34.715Z,7.72
2023-05-25T18:18:03.682Z,7.88
2023-05-25T18:20:32.574Z,6.95
2023-05-25T18:22:59.490Z,8.90
2023-05-25T18:25:26.314Z,7.25
2023-05-25T18:27:52.974Z,7.82
2023-05-25T18:30:19.684Z,7.45
2023-05-25T18:32:51.118Z,7.22
2023-05-25T18:35:23.201Z,8.55
2023-05-25T18:37:49.965Z,7.28
2023-05-25T18:40:19.103Z,7.18
2023-05-25T18:42:45.813Z,7.53
2023-05-25T18:45:14.735Z,7.72
2023-05-25T18:47:44.116Z,7.75
2023-05-25T18:50:12.451Z,8.05
2023-05-25T18:52:42.135Z,7.75
2023-05-25T18:55:09.134Z,7.18
2023-05-25T18:57:38.287Z,9.10
2023-05-25T19:00:11.189Z,8.25
2023-05-25T19:02:38.889Z,6.63
2023-05-25T19:05:06.468Z,7.57
2023-05-25T19:07:37.765Z,8.43
2023-05-25T19:10:08.886Z,7.85
2023-05-25T19:12:35.961Z,6.80
2023-05-25T19:15:06.125Z,6.53
2023-05-25T19:17:38.000Z,8.30
2023-05-25T19:20:04.986Z,8.20
2023-05-25T19:22:33.836Z,6.18
2023-05-25T19:25:01.312Z,6.28
2023-05-25T19:27:33.317Z,7.15
2023-05-25T19:30:02.212Z,6.95
2023-05-25T19:32:33.686Z,7.03
2023-05-25T19:35:05.064Z,9.43
2023-05-25T19:37:34.490Z,8.57
2023-05-25T19:40:03.884Z,6.65
2023-05-25T19:42:35.764Z,6.22
2023-05-25T19:45:07.226Z,6.70
2023-05-25T19:47:33.984Z,6.78
2023-05-25T19:50:02.901Z,6.13
2023-05-25T19:52:31.886Z,6.72
2023-05-25T19:54:58.541Z,7.15
2023-05-25T19:57:27.346Z,7.47
2023-05-25T19:59:54.065Z,6.97
2023-05-25T20:02:24.197Z,7.88
2023-05-25T20:04:53.193Z,6.25
2023-05-25T20:07:22.164Z,6.43
2023-05-25T20:09:51.050Z,7.35
2023-05-25T20:12:17.812Z,8.05
2023-05-25T20:14:47.014Z,6.43
2023-05-25T20:17:15.923Z,6.07
2023-05-25T20:19:42.693Z,6.65
2023-05-25T20:22:11.517Z,6.72
2023-05-25T20:24:41.359Z,6.75
2023-05-25T20:27:10.408Z,6.32
2023-05-25T20:29:40.262Z,6.30
2023-05-25T20:32:11.976Z,7.72
2023-05-25T20:34:41.700Z,6.82
2023-05-25T20:37:13.094Z,6.38
2023-05-25T20:39:42.680Z,7.32
2023-05-25T20:42:14.016Z,6.00
2023-05-25T20:44:40.758Z,5.82
2023-05-25T20:47:10.591Z,6.93
2023-05-25T20:49:37.284Z,8.60
2023-05-25T20:52:04.236Z,7.05
2023-05-25T20:54:31.055Z,6.65
2023-05-25T20:56:57.811Z,7.88
2023-05-25T20:59:24.626Z,8.50
2023-05-25T21:01:57.022Z,5.78
2023-05-25T21:04:23.799Z,6.40
2023-05-25T21:06:52.966Z,10.77
2023-05-25T21:09:22.563Z,6.43
2023-05-25T21:11:49.570Z,5.47
2023-05-25T21:14:16.692Z,9.40
2023-05-25T21:16:50.116Z,5.68
2023-05-25T21:19:17.201Z,6.13
2023-05-25T21:21:46.081Z,7.32
2023-05-25T21:24:12.953Z,6.60
2023-05-25T21:26:44.975Z,7.43
2023-05-25T21:29:11.717Z,5.10
2023-05-25T21:31:38.444Z,8.13
2023-05-25T21:34:05.181Z,6.47
2023-05-25T21:36:33.978Z,6.38
2023-05-25T21:39:02.830Z,7.68
2023-05-25T21:41:32.125Z,6.65
2023-05-25T21:44:01.004Z,5.72
2023-05-25T21:46:27.765Z,8.07
2023-05-25T21:48:59.229Z,5.32
2023-05-25T21:51:30.049Z,6.90
2023-05-25T21:53:58.938Z,6.55
2023-05-25T21:56:27.774Z,7.68
2023-05-25T21:58:55.043Z,8.05
2023-05-25T22:01:24.813Z,8.00
2023-05-25T22:03:53.738Z,9.48
2023-05-25T22:06:20.460Z,5.38
2023-05-25T22:08:49.317Z,6.55
2023-05-25T22:11:20.678Z,6.75
2023-05-25T22:13:52.090Z,5.72
2023-05-25T22:16:18.903Z,6.32
2023-05-25T22:18:50.358Z,5.38
2023-05-25T22:21:17.044Z,6.80
2023-05-25T22:23:43.712Z,7.40
2023-05-25T22:26:15.084Z,7.45
2023-05-25T22:28:42.023Z,5.30
2023-05-25T22:31:09.187Z,5.15
2023-05-25T22:33:35.994Z,8.60
2023-05-25T22:36:08.080Z,5.63
2023-05-25T22:38:34.871Z,7.22
2023-05-25T22:41:11.380Z,7.45
2023-05-25T22:43:40.464Z,5.82
2023-05-25T22:46:09.705Z,5.88
2023-05-25T22:48:38.745Z,4.78
2023-05-25T22:51:10.541Z,4.38
2023-05-25T22:53:39.353Z,5.80
2023-05-25T22:56:06.069Z,4.85
2023-05-25T22:58:35.084Z,5.65
2023-05-25T23:01:01.688Z,4.90
2023-05-25T23:03:30.871Z,6.15
2023-05-25T23:05:59.789Z,4.80
2023-05-25T23:08:31.868Z,4.88
2023-05-25T23:11:00.748Z,5.22
2023-05-25T23:13:27.855Z,5.35
2023-05-25T23:15:55.477Z,4.30
2023-05-25T23:18:22.249Z,6.15
2023-05-25T23:20:51.088Z,5.78
2023-05-25T23:23:20.794Z,6.03
2023-05-25T23:25:47.475Z,4.97
2023-05-25T23:28:16.849Z,5.03
2023-05-25T23:30:45.724Z,5.32
2023-05-25T23:33:12.385Z,4.82
2023-05-25T23:35:39.051Z,5.65
2023-05-25T23:38:06.202Z,4.90
2023-05-25T23:40:33.345Z,6.90
2023-05-25T23:43:01.231Z,5.00
2023-05-25T23:45:27.967Z,4.65
2023-05-25T23:47:56.811Z,4.35
2023-05-25T23:50:23.577Z,4.13
2023-05-25T23:52:52.377Z,4.38
2023-05-25T23:55:19.278Z,4.90
2023-05-25T23:57:48.290Z,4.57
